Time;durP1;ratioP1;P1;durP2;ratioP2;P2;SDS_P1;SDS_P2;PMS_P1;PMS_P2;Temp;Humidity;BMP_temperature;BMP_pressure;BME280_temperature;BME280_humidity;BME280_pressure;Samples;Min_cycle;Max_cycle;Signal;HPM_P1;HPM_P2
2022/05/31 00:00:02;;;;;;;6.10;3.53;;;6.70;99.90;;;;;;4787627;29;20191;-70
2022/05/31 00:02:27;;;;;;;5.18;3.42;;;6.70;99.90;;;;;;4787887;29;20354;-71
2022/05/31 00:04:53;;;;;;;4.20;3.58;;;6.70;99.90;;;;;;4787422;30;20527;-70
2022/05/31 00:07:19;;;;;;;4.80;3.40;;;6.60;99.90;;;;;;4787561;30;20034;-70
2022/05/31 00:09:45;;;;;;;4.32;3.72;;;6.80;99.90;;;;;;4787228;30;20039;-70
2022/05/31 00:12:11;;;;;;;5.30;3.22;;;6.70;99.90;;;;;;4787231;29;20468;-70
2022/05/31 00:14:38;;;;;;;5.70;2.75;;;6.50;99.90;;;;;;4787425;30;20063;-71
2022/05/31 00:17:04;;;;;;;3.95;3.03;;;6.50;99.90;;;;;;4787369;29;20043;-70
2022/05/31 00:19:29;;;;;;;4.65;3.15;;;6.60;99.90;;;;;;4787311;29;20034;-70
2022/05/31 00:22:09;;;;;;;4.53;3.13;;;6.60;99.90;;;;;;4787396;30;20408;-70
2022/05/31 00:24:37;;;;;;;7.15;3.33;;;6.50;99.90;;;;;;4787216;29;20051;-71
2022/05/31 00:27:03;;;;;;;3.83;3.20;;;6.50;99.90;;;;;;4787599;29;20074;-70
2022/05/31 00:29:30;;;;;;;5.80;3.90;;;6.50;99.90;;;;;;4792195;29;20046;-70
2022/05/31 00:31:55;;;;;;;6.60;2.78;;;6.40;99.90;;;;;;4793235;29;20539;-70
2022/05/31 00:34:21;;;;;;;4.07;3.08;;;6.40;99.90;;;;;;4793119;29;20106;-70
2022/05/31 00:36:49;;;;;;;6.05;3.00;;;6.40;99.90;;;;;;4793230;30;20027;-70
2022/05/31 00:39:14;;;;;;;3.92;3.10;;;6.20;99.90;;;;;;4793109;30;20031;-70
2022/05/31 00:41:40;;;;;;;4.30;3.30;;;6.20;99.90;;;;;;4793114;30;20039;-70
2022/05/31 00:44:10;;;;;;;4.97;3.40;;;6.30;99.90;;;;;;4793307;29;20337;-70
2022/05/31 00:46:49;;;;;;;5.90;3.33;;;6.20;99.90;;;;;;4793237;29;20035;-70
2022/05/31 00:49:25;;;;;;;4.28;3.20;;;6.30;99.90;;;;;;4775064;30;20050;-70
2022/05/31 00:51:54;;;;;;;4.80;3.75;;;6.30;99.90;;;;;;4775224;30;20467;-70
2022/05/31 00:54:23;;;;;;;9.77;3.90;;;6.30;99.90;;;;;;4775155;30;20106;-70
2022/05/31 00:56:51;;;;;;;3.88;2.97;;;6.30;99.90;;;;;;4775160;30;20032;-70
2022/05/31 00:59:40;;;;;;;4.05;3.20;;;6.20;99.90;;;;;;4775064;30;20032;-71
2022/05/31 01:02:06;;;;;;;4.97;3.25;;;6.30;99.90;;;;;;4775177;30;20047;-70
2022/05/31 01:04:45;;;;;;;5.75;3.50;;;6.50;99.90;;;;;;4775035;30;20077;-70
2022/05/31 01:07:10;;;;;;;6.03;3.60;;;6.50;99.90;;;;;;4775274;30;20040;-70
2022/05/31 01:09:36;;;;;;;6.47;4.05;;;6.70;99.90;;;;;;4774920;30;20039;-70
2022/05/31 01:12:03;;;;;;;6.43;3.60;;;6.70;99.90;;;;;;4774277;30;20446;-70
2022/05/31 01:14:30;;;;;;;5.05;3.75;;;6.70;99.90;;;;;;4777548;30;20054;-70
2022/05/31 01:16:59;;;;;;;3.83;3.25;;;6.70;99.90;;;;;;4792866;29;20038;-70
2022/05/31 01:22:09;;;;;;;5.07;3.75;;;6.80;99.90;;;;;;4792959;30;20050;-70
2022/05/31 01:24:45;;;;;;;6.18;3.40;;;6.90;99.90;;;;;;4792759;29;20406;-70
2022/05/31 01:27:27;;;;;;;7.28;4.13;;;6.90;99.90;;;;;;4792844;29;20062;-71
2022/05/31 01:29:54;;;;;;;5.00;3.28;;;6.90;99.90;;;;;;4792822;29;20031;-70
2022/05/31 01:32:19;;;;;;;5.80;3.30;;;7.00;99.90;;;;;;4792720;29;20050;-71
2022/05/31 01:35:02;;;;;;;5.90;3.50;;;7.10;99.90;;;;;;4792272;30;20027;-71
2022/05/31 01:37:38;;;;;;;5.03;3.58;;;7.20;99.90;;;;;;4792806;29;20582;-70
2022/05/31 01:40:09;;;;;;;5.80;3.40;;;7.30;99.90;;;;;;4790756;29;20372;-71
2022/05/31 01:42:44;;;;;;;6.10;3.90;;;7.20;99.90;;;;;;4789625;29;20043;-70
2022/05/31 01:45:15;;;;;;;6.43;3.53;;;7.20;99.90;;;;;;4784223;29;20040;-70
2022/05/31 01:47:41;;;;;;;3.97;3.58;;;7.30;99.90;;;;;;4789831;29;20031;-70
2022/05/31 01:50:11;;;;;;;4.75;3.35;;;7.30;99.90;;;;;;4789745;29;20039;-70
2022/05/31 01:52:38;;;;;;;4.30;3.33;;;7.30;99.90;;;;;;4789727;29;20506;-70
2022/05/31 01:55:05;;;;;;;5.25;3.20;;;7.30;99.90;;;;;;4789464;29;20400;-70
2022/05/31 01:57:33;;;;;;;5.50;3.20;;;7.20;99.90;;;;;;4789686;29;20035;-70
2022/05/31 02:00:08;;;;;;;4.07;3.20;;;7.20;99.90;;;;;;4789508;29;20038;-70
2022/05/31 02:02:34;;;;;;;3.60;3.00;;;7.20;99.90;;;;;;4789427;29;20031;-71
2022/05/31 02:04:59;;;;;;;3.58;2.97;;;7.30;99.90;;;;;;4789469;29;20096;-70
2022/05/31 02:07:26;;;;;;;5.15;3.78;;;7.40;99.90;;;;;;4789454;30;20043;-70
2022/05/31 02:09:53;;;;;;;4.38;3.03;;;7.40;99.90;;;;;;4789415;29;20031;-70
2022/05/31 02:12:21;;;;;;;4.32;3.50;;;7.40;99.90;;;;;;4788144;29;20251;-70
2022/05/31 02:14:47;;;;;;;6.43;3.58;;;7.30;99.90;;;;;;4789322;29;20035;-71
2022/05/31 02:17:13;;;;;;;5.30;3.50;;;7.30;99.90;;;;;;4789354;29;20541;-70
2022/05/31 02:19:39;;;;;;;5.15;3.55;;;7.30;99.90;;;;;;4789176;29;20043;-70
2022/05/31 02:22:08;;;;;;;6.28;3.25;;;7.20;99.90;;;;;;4789125;30;20042;-70
2022/05/31 02:24:34;;;;;;;5.68;3.63;;;7.30;99.90;;;;;;4789197;29;20031;-69
2022/05/31 02:27:01;;;;;;;5.70;3.30;;;7.20;99.90;;;;;;4789131;29;20039;-70
2022/05/31 02:29:30;;;;;;;4.10;3.70;;;7.20;99.90;;;;;;4789183;29;20038;-70
2022/05/31 02:31:58;;;;;;;4.57;3.58;;;7.30;99.90;;;;;;4788923;29;20039;-70
2022/05/31 02:34:28;;;;;;;5.53;3.88;;;7.40;99.90;;;;;;4789018;29;20476;-70
2022/05/31 02:36:54;;;;;;;;;;;7.30;99.90;;;;;;4789394;29;20372;-70
2022/05/31 02:39:20;;;;;;;4.82;3.42;;;7.30;99.90;;;;;;4788966;29;20369;-70
2022/05/31 02:41:47;;;;;;;4.57;3.92;;;7.40;99.90;;;;;;4788731;29;20110;-70
2022/05/31 02:44:14;;;;;;;6.78;3.67;;;7.30;99.90;;;;;;4788773;29;20543;-70
2022/05/31 02:46:40;;;;;;;5.22;4.10;;;7.40;99.90;;;;;;4788837;29;20031;-70
2022/05/31 02:49:07;;;;;;;6.10;3.97;;;7.30;99.90;;;;;;4788957;29;20039;-70
2022/05/31 02:51:38;;;;;;;4.50;3.22;;;7.40;99.90;;;;;;4788606;29;20354;-70
2022/05/31 02:54:05;;;;;;;4.22;3.40;;;7.40;99.90;;;;;;4788658;29;20081;-70
2022/05/31 02:56:31;;;;;;;4.97;3.38;;;7.20;99.90;;;;;;4788612;29;20038;-70
2022/05/31 02:58:57;;;;;;;4.93;3.42;;;7.20;99.90;;;;;;4788587;29;20028;-70
2022/05/31 03:01:31;;;;;;;4.05;3.22;;;7.10;99.90;;;;;;4788436;30;20093;-70
2022/05/31 03:03:57;;;;;;;7.38;3.80;;;7.10;99.90;;;;;;4788336;30;20039;-71
2022/05/31 03:06:24;;;;;;;4.40;3.40;;;6.90;99.90;;;;;;4788438;30;20063;-70
2022/05/31 03:08:50;;;;;;;6.68;4.03;;;7.00;99.90;;;;;;4788351;30;20091;-70
2022/05/31 03:11:27;;;;;;;5.72;3.88;;;6.90;99.90;;;;;;4787020;30;20063;-70
2022/05/31 03:13:58;;;;;;;5.10;3.95;;;7.00;99.90;;;;;;4788320;29;20032;-70
2022/05/31 03:16:24;;;;;;;5.43;3.30;;;6.90;99.90;;;;;;4788262;30;20031;-70
2022/05/31 03:18:58;;;;;;;5.18;3.63;;;6.80;99.90;;;;;;4788223;30;20380;-70
2022/05/31 03:21:28;;;;;;;5.15;3.60;;;6.90;99.90;;;;;;4788195;30;20403;-70
2022/05/31 03:23:56;;;;;;;;;;;6.80;99.90;;;;;;4788280;30;20087;-71
2022/05/31 03:26:23;;;;;;;4.88;3.67;;;6.80;99.90;;;;;;4788043;29;19914;-70
2022/05/31 03:28:49;;;;;;;4.13;3.50;;;6.90;99.90;;;;;;4788035;30;20404;-70
2022/05/31 03:31:15;;;;;;;5.95;3.50;;;7.00;99.90;;;;;;4788087;30;20039;-70
2022/05/31 03:33:40;;;;;;;4.43;3.63;;;7.00;99.90;;;;;;4787904;30;20035;-70
2022/05/31 03:36:06;;;;;;;6.00;3.67;;;7.00;99.90;;;;;;4778702;30;20032;-70
2022/05/31 03:38:32;;;;;;;5.07;3.42;;;7.00;99.90;;;;;;4770104;30;20032;-71
2022/05/31 03:40:58;;;;;;;4.78;3.85;;;7.00;99.90;;;;;;4770100;30;20106;-70
2022/05/31 03:43:27;;;;;;;4.88;3.72;;;7.10;99.90;;;;;;4770213;30;20034;-70
2022/05/31 03:45:53;;;;;;;9.40;3.97;;;7.20;99.90;;;;;;4769966;30;20051;-70
2022/05/31 03:48:19;;;;;;;5.13;3.70;;;7.20;99.90;;;;;;4769900;30;20384;-70
2022/05/31 03:50:45;;;;;;;5.25;3.55;;;7.10;99.90;;;;;;4770236;30;20031;-70
2022/05/31 03:53:13;;;;;;;4.25;3.65;;;7.20;99.90;;;;;;4774686;30;20044;-70
2022/05/31 03:55:41;;;;;;;4.50;3.63;;;7.30;99.90;;;;;;4787736;29;20024;-71
2022/05/31 03:58:07;;;;;;;7.25;4.25;;;7.30;99.90;;;;;;4787529;29;20027;-70
2022/05/31 04:00:33;;;;;;;5.57;3.72;;;7.20;99.90;;;;;;4787639;29;20027;-70
2022/05/31 04:02:59;;;;;;;6.55;4.03;;;7.30;99.90;;;;;;4787016;29;20490;-70
2022/05/31 04:05:25;;;;;;;5.25;3.67;;;7.30;99.90;;;;;;4787613;29;20031;-70
2022/05/31 04:07:51;;;;;;;5.30;4.07;;;7.30;99.90;;;;;;4787357;30;20110;-70
2022/05/31 04:10:17;;;;;;;4.68;3.85;;;7.30;99.90;;;;;;4787439;29;20027;-70
2022/05/31 04:12:43;;;;;;;5.78;4.18;;;7.30;99.90;;;;;;4786462;29;20055;-70
2022/05/31 04:15:08;;;;;;;5.03;4.05;;;7.40;99.90;;;;;;4787199;29;20460;-70
2022/05/31 04:17:34;;;;;;;5.90;4.20;;;7.50;99.90;;;;;;4787548;30;20028;-70
2022/05/31 04:19:59;;;;;;;5.05;3.95;;;7.50;99.90;;;;;;4787405;30;20476;-71
2022/05/31 04:22:25;;;;;;;6.22;4.20;;;7.50;99.90;;;;;;4787280;30;20036;-70
2022/05/31 04:24:54;;;;;;;6.15;3.90;;;7.50;99.90;;;;;;4787112;30;20070;-70
2022/05/31 04:27:21;;;;;;;5.38;4.07;;;7.50;99.90;;;;;;4787566;30;20027;-70
2022/05/31 04:29:47;;;;;;;5.40;3.47;;;7.70;99.90;;;;;;4787163;29;20027;-70
2022/05/31 04:32:14;;;;;;;4.95;4.00;;;7.80;99.90;;;;;;4787201;30;20027;-70
2022/05/31 04:34:39;;;;;;;7.65;4.30;;;7.90;99.90;;;;;;4787152;29;20062;-70
2022/05/31 04:37:06;;;;;;;6.03;3.88;;;8.10;99.90;;;;;;4787214;30;20070;-70
2022/05/31 04:39:32;;;;;;;5.95;3.90;;;8.20;99.90;;;;;;4787402;30;20031;-70
2022/05/31 04:41:57;;;;;;;7.05;3.80;;;8.30;99.90;;;;;;4787492;30;20051;-71
2022/05/31 04:44:23;;;;;;;6.35;4.05;;;8.50;91.60;;;;;;4787062;30;20373;-72
2022/05/31 04:46:49;;;;;;;4.60;3.78;;;8.60;67.80;;;;;;4787142;30;20039;-69
2022/05/31 04:49:15;;;;;;;5.72;3.75;;;8.80;16.60;;;;;;4786406;30;20437;-70
2022/05/31 04:51:41;;;;;;;4.75;3.65;;;8.90;1.00;;;;;;4787230;29;20023;-71
2022/05/31 04:54:07;;;;;;;6.15;3.60;;;9.10;1.00;;;;;;4787227;30;20031;-70
2022/05/31 04:56:33;;;;;;;5.40;3.60;;;9.20;1.00;;;;;;4787014;30;20038;-71
2022/05/31 04:58:59;;;;;;;4.40;3.65;;;9.30;1.00;;;;;;4786848;29;20024;-71
2022/05/31 05:01:25;;;;;;;4.38;3.80;;;9.50;1.00;;;;;;4787341;29;20111;-71
2022/05/31 05:03:58;;;;;;;4.22;3.55;;;10.20;1.00;;;;;;4787434;30;20047;-70
2022/05/31 05:06:24;;;;;;;4.47;3.50;;;11.50;1.00;;;;;;4779804;30;20111;-70
2022/05/31 05:08:49;;;;;;;4.40;3.20;;;11.90;99.90;;;;;;4769078;30;20481;-70
2022/05/31 05:11:26;;;;;;;5.30;3.40;;;10.60;99.90;;;;;;4767720;30;20044;-70
2022/05/31 05:13:57;;;;;;;3.10;2.80;;;10.00;1.00;;;;;;4768996;30;20059;-71
2022/05/31 05:16:23;;;;;;;4.47;2.88;;;9.90;1.00;;;;;;4771532;30;20039;-70
2022/05/31 05:18:49;;;;;;;3.90;2.78;;;9.90;1.00;;;;;;4788355;30;20031;-70
2022/05/31 05:21:15;;;;;;;4.18;3.33;;;10.10;1.00;;;;;;4789697;30;20023;-71
2022/05/31 05:23:41;;;;;;;3.55;3.10;;;10.20;1.00;;;;;;4790022;30;20104;-70
2022/05/31 05:26:08;;;;;;;5.10;3.30;;;10.60;1.00;;;;;;4790268;30;20048;-70
2022/05/31 05:31:26;;;;;;;4.93;3.13;;;11.00;99.90;;;;;;4790133;30;20045;-71
2022/05/31 05:33:53;;;;;;;4.97;3.75;;;12.30;99.90;;;;;;4790011;30;20077;-71
2022/05/31 05:36:18;;;;;;;4.15;3.60;;;13.80;99.90;;;;;;4789993;30;20031;-71
2022/05/31 05:38:44;;;;;;;4.53;3.03;;;14.40;99.90;;;;;;4789858;30;20050;-71
2022/05/31 05:41:10;;;;;;;4.65;3.05;;;14.90;99.90;;;;;;4788787;29;20028;-71
2022/05/31 05:43:36;;;;;;;5.05;2.85;;;14.20;99.90;;;;;;4789156;29;20043;-71
2022/05/31 05:46:02;;;;;;;4.13;3.13;;;13.60;99.90;;;;;;4789989;30;20088;-71
2022/05/31 05:48:28;;;;;;;3.38;3.08;;;14.00;99.90;;;;;;4789151;30;20039;-71
2022/05/31 05:50:54;;;;;;;4.45;3.10;;;14.90;99.90;;;;;;4789357;30;20023;-71
2022/05/31 05:53:19;;;;;;;5.18;3.13;;;16.00;99.90;;;;;;4789692;29;20037;-71
2022/05/31 05:55:45;;;;;;;3.72;2.80;;;17.50;99.90;;;;;;4789832;29;20031;-71
2022/05/31 05:58:10;;;;;;;3.72;2.67;;;18.20;99.90;;;;;;4789636;29;20468;-71
2022/05/31 06:00:51;;;;;;;3.60;2.88;;;18.10;99.90;;;;;;4789471;29;20452;-71
2022/05/31 06:03:25;;;;;;;4.53;2.60;;;21.00;99.90;;;;;;4771559;30;20472;-71
2022/05/31 06:05:52;;;;;;;3.00;2.70;;;21.70;99.90;;;;;;4771312;30;20613;-72
2022/05/31 06:08:28;;;;;;;2.95;2.65;;;23.70;99.90;;;;;;4771174;30;20032;-71
2022/05/31 06:11:07;;;;;;;3.63;2.70;;;21.70;99.90;;;;;;4778771;30;20476;-72
2022/05/31 06:13:41;;;;;;;4.50;2.90;;;19.90;99.90;;;;;;4788093;30;20496;-71
2022/05/31 06:16:09;;;;;;;5.00;2.80;;;17.30;99.90;;;;;;4771944;29;20093;-71
2022/05/31 06:18:44;;;;;;;3.95;2.92;;;17.40;99.90;;;;;;4771430;30;20067;-71
2022/05/31 06:21:12;;;;;;;4.70;2.60;;;17.80;99.90;;;;;;4778745;30;20111;-71
2022/05/31 06:23:38;;;;;;;3.05;2.40;;;18.30;99.90;;;;;;4780676;30;20078;-71
2022/05/31 06:26:04;;;;;;;3.20;2.50;;;20.70;99.90;;;;;;4787835;29;20032;-72
2022/05/31 06:28:30;;;;;;;3.88;2.70;;;21.20;99.90;;;;;;4771021;30;20027;-72
2022/05/31 06:30:55;;;;;;;4.30;2.33;;;20.10;99.90;;;;;;4771118;30;20488;-72
2022/05/31 06:33:21;;;;;;;3.13;2.80;;;20.10;99.90;;;;;;4771188;30;20032;-71
2022/05/31 06:35:46;;;;;;;2.97;2.70;;;19.40;99.90;;;;;;4771007;30;20113;-71
2022/05/31 06:38:13;;;;;;;3.83;2.67;;;20.10;99.90;;;;;;4771112;30;20114;-71
2022/05/31 06:40:39;;;;;;;4.30;2.55;;;21.90;99.90;;;;;;4771325;30;20032;-71
2022/05/31 06:43:11;;;;;;;3.42;2.70;;;21.70;99.90;;;;;;4770951;30;20036;-71
2022/05/31 06:45:37;;;;;;;3.10;2.80;;;22.80;99.90;;;;;;4775427;30;20131;-72
2022/05/31 06:48:02;;;;;;;3.45;2.97;;;22.30;99.90;;;;;;4771066;30;20106;-72
2022/05/31 06:50:28;;;;;;;2.70;2.50;;;22.50;99.90;;;;;;4785445;29;20036;-71
2022/05/31 06:58:22;;;;;;;2.88;2.67;;;25.50;99.90;;;;;;4770156;30;20185;-72
2022/05/31 07:00:47;;;;;;;3.28;2.85;;;26.40;99.90;;;;;;4776281;30;20660;-72
2022/05/31 07:03:13;;;;;;;3.70;2.78;;;28.70;99.90;;;;;;4786904;30;20042;-72
2022/05/31 07:05:40;;;;;;;5.32;2.83;;;29.90;99.90;;;;;;4770557;30;20043;-71
2022/05/31 07:08:05;;;;;;;4.22;3.58;;;29.30;99.90;;;;;;4769708;30;20024;-71
2022/05/31 07:10:31;;;;;;;3.55;3.03;;;26.20;99.90;;;;;;4769507;30;20539;-72
2022/05/31 07:12:56;;;;;;;4.20;3.17;;;26.00;99.90;;;;;;4768806;30;20109;-71
2022/05/31 07:15:24;;;;;;;3.75;3.38;;;25.20;99.90;;;;;;4769215;30;20035;-71
2022/05/31 07:17:49;;;;;;;3.55;3.13;;;23.00;99.90;;;;;;4771683;30;20032;-72
2022/05/31 07:20:15;;;;;;;3.38;3.08;;;25.40;99.90;;;;;;4782668;30;20066;-72
2022/05/31 07:22:41;;;;;;;3.83;3.25;;;29.00;99.90;;;;;;4768730;30;20121;-72
2022/05/31 07:25:08;;;;;;;4.80;3.00;;;29.80;99.90;;;;;;4782588;30;20618;-72
2022/05/31 07:27:34;;;;;;;5.05;3.60;;;32.30;99.90;;;;;;4787263;30;20032;-72
2022/05/31 07:30:00;;;;;;;4.30;3.28;;;34.20;99.90;;;;;;4787273;30;20047;-71
2022/05/31 07:32:26;;;;;;;5.15;3.47;;;31.50;99.90;;;;;;4787021;30;20475;-72
2022/05/31 07:34:52;;;;;;;3.53;3.10;;;30.70;99.90;;;;;;4779594;30;20042;-74
2022/05/31 07:37:17;;;;;;;5.00;3.38;;;33.60;99.90;;;;;;4786763;30;20031;-72
2022/05/31 07:39:43;;;;;;;4.43;3.22;;;32.00;99.90;;;;;;4786738;30;20031;-72
2022/05/31 07:42:09;;;;;;;5.65;3.72;;;31.40;99.90;;;;;;4786877;30;20088;-72
2022/05/31 07:44:35;;;;;;;4.78;3.20;;;32.40;99.90;;;;;;4787344;29;20078;-74
2022/05/31 07:47:07;;;;;;;5.22;3.65;;;34.70;99.90;;;;;;4786962;29;20059;-74
2022/05/31 07:49:40;;;;;;;4.78;3.58;;;34.90;99.90;;;;;;4786890;30;20082;-74
2022/05/31 07:52:09;;;;;;;4.45;4.05;;;35.60;99.90;;;;;;4786772;30;20420;-74
2022/05/31 07:54:35;;;;;;;5.05;4.15;;;36.10;99.90;;;;;;4783249;29;20139;-74
2022/05/31 07:57:04;;;;;;;4.47;4.07;;;30.40;99.90;;;;;;4778448;30;20076;-74
2022/05/31 07:59:32;;;;;;;5.00;4.13;;;33.40;99.90;;;;;;4787199;29;20069;-74
2022/05/31 08:01:57;;;;;;;4.82;3.97;;;31.60;99.90;;;;;;4786682;29;20027;-74
2022/05/31 08:04:23;;;;;;;4.60;3.92;;;29.70;99.90;;;;;;4786562;30;20034;-74
2022/05/31 08:06:48;;;;;;;4.68;4.10;;;33.10;99.90;;;;;;4786538;30;20036;-74
2022/05/31 08:09:14;;;;;;;4.53;3.90;;;35.70;99.90;;;;;;4786661;30;20110;-74
2022/05/31 08:11:39;;;;;;;4.65;4.10;;;35.00;99.90;;;;;;4784639;29;20426;-74
2022/05/31 08:14:05;;;;;;;5.05;3.97;;;36.20;99.90;;;;;;4786415;29;20035;-74
2022/05/31 08:16:33;;;;;;;5.88;4.32;;;34.20;99.90;;;;;;4786439;29;20092;-74
2022/05/31 08:18:59;;;;;;;4.60;4.10;;;35.40;99.90;;;;;;4778331;29;20635;-74
2022/05/31 08:21:27;;;;;;;5.55;4.45;;;38.70;99.90;;;;;;4768825;30;20116;-74
2022/05/31 08:24:06;;;;;;;4.70;4.30;;;36.50;99.90;;;;;;4773523;30;20468;-74
2022/05/31 08:26:31;;;;;;;4.95;4.00;;;35.90;99.90;;;;;;4788798;29;20031;-74
2022/05/31 08:28:57;;;;;;;4.93;4.32;;;37.50;99.90;;;;;;4789753;30;20024;-75
2022/05/31 08:31:32;;;;;;;6.60;4.70;;;39.70;99.90;;;;;;4787033;29;20031;-75
2022/05/31 08:33:58;;;;;;;5.30;4.80;;;34.50;99.90;;;;;;4778444;29;20040;-73
2022/05/31 08:36:24;;;;;;;5.13;4.30;;;33.90;99.90;;;;;;4779951;30;20110;-72
2022/05/31 08:38:49;;;;;;;3.88;3.58;;;37.10;99.90;;;;;;4786474;30;20150;-72
2022/05/31 08:41:24;;;;;;;5.57;3.70;;;35.70;99.90;;;;;;4786530;29;20298;-72
2022/05/31 08:43:50;;;;;;;4.35;3.50;;;37.10;99.90;;;;;;4786526;29;20071;-73
2022/05/31 08:46:40;;;;;;;4.88;3.70;;;35.30;99.90;;;;;;4786467;29;20072;-72
2022/05/31 08:51:52;;;;;;;4.93;3.42;;;34.60;99.90;;;;;;4775717;29;20389;-72
2022/05/31 08:52:24;;;;;;;6.60;4.35;;;33.90;99.90;;;;;;4772234;30;20039;-72
2022/05/31 08:57:50;;;;;;;5.97;3.83;;;34.30;99.90;;;;;;4772091;30;20089;-72
2022/05/31 09:00:26;;;;;;;4.97;4.30;;;35.40;99.90;;;;;;4772100;30;20040;-71
2022/05/31 09:02:57;;;;;;;6.13;4.05;;;27.80;99.90;;;;;;4771976;30;20047;-71
2022/05/31 09:05:30;;;;;;;5.70;4.32;;;27.50;99.90;;;;;;4771884;30;20038;-71
2022/05/31 09:08:21;;;;;;;5.57;3.75;;;23.90;99.90;;;;;;4778397;30;20039;-71
2022/05/31 09:11:16;;;;;;;4.07;3.60;;;26.50;99.90;;;;;;4789673;29;20035;-70
2022/05/31 09:13:50;;;;;;;7.35;4.05;;;26.40;99.90;;;;;;4784551;30;20407;-71
2022/05/31 09:16:36;;;;;;;5.55;3.95;;;28.20;99.90;;;;;;4789911;29;20617;-70
2022/05/31 09:19:06;;;;;;;5.55;3.78;;;32.00;99.90;;;;;;4789910;30;20126;-71
2022/05/31 09:21:38;;;;;;;7.60;4.90;;;33.10;99.90;;;;;;4778967;29;20070;-71
2022/05/31 09:24:07;;;;;;;5.72;3.90;;;33.70;99.90;;;;;;4789051;30;20096;-71
2022/05/31 09:26:54;;;;;;;5.50;4.07;;;34.60;99.90;;;;;;4787704;29;20092;-71
2022/05/31 09:29:33;;;;;;;6.13;3.47;;;31.40;99.90;;;;;;4771608;30;20051;-71
2022/05/31 09:32:17;;;;;;;5.13;4.10;;;31.00;99.90;;;;;;4771745;30;20077;-70
2022/05/31 09:35:18;;;;;;;5.07;4.22;;;32.40;99.90;;;;;;4771041;30;20028;-70
2022/05/31 09:38:14;;;;;;;4.50;4.00;;;34.80;99.90;;;;;;4786071;30;20027;-71
2022/05/31 09:40:50;;;;;;;6.35;4.20;;;34.70;99.90;;;;;;4773022;30;20066;-71
2022/05/31 09:43:23;;;;;;;4.40;3.95;;;31.50;99.90;;;;;;4789192;29;20506;-71
2022/05/31 09:46:17;;;;;;;7.88;4.20;;;30.70;99.90;;;;;;4787223;29;20028;-70
2022/05/31 09:48:52;;;;;;;4.50;3.85;;;29.50;99.90;;;;;;4786734;30;20100;-70
2022/05/31 09:51:38;;;;;;;5.90;3.97;;;28.90;99.90;;;;;;4789054;29;20027;-70
2022/05/31 09:57:07;;;;;;;7.20;3.78;;;30.20;99.90;;;;;;4771143;30;20065;-71
2022/05/31 09:59:36;;;;;;;5.45;3.85;;;34.00;99.90;;;;;;4771085;30;20441;-71
2022/05/31 10:02:20;;;;;;;5.50;4.13;;;35.60;99.90;;;;;;4780407;30;20460;-71
2022/05/31 10:04:48;;;;;;;7.57;3.97;;;34.20;99.90;;;;;;4770779;30;20451;-71
2022/05/31 10:07:32;;;;;;;4.63;4.20;;;35.40;99.90;;;;;;4773783;30;20086;-70
2022/05/31 10:10:08;;;;;;;6.18;4.07;;;33.30;99.90;;;;;;4787751;29;20023;-71
2022/05/31 10:12:40;;;;;;;5.63;4.38;;;33.70;99.90;;;;;;4778441;29;20063;-71
2022/05/31 10:15:34;;;;;;;5.18;4.30;;;33.20;99.90;;;;;;4783597;30;20102;-70
2022/05/31 10:18:06;;;;;;;5.35;4.47;;;33.80;99.90;;;;;;4787264;29;20027;-71
2022/05/31 10:20:32;;;;;;;8.73;4.32;;;31.90;99.90;;;;;;4775301;30;20092;-70
2022/05/31 10:23:14;;;;;;;8.45;5.35;;;30.00;99.90;;;;;;4788773;29;20475;-71
2022/05/31 10:25:57;;;;;;;6.72;4.50;;;26.90;99.90;;;;;;4785700;29;20044;-70
2022/05/31 10:28:30;;;;;;;8.25;4.63;;;27.40;99.90;;;;;;4788101;29;20054;-71
2022/05/31 10:31:03;;;;;;;7.60;5.20;;;28.70;99.90;;;;;;4779109;30;20024;-71
2022/05/31 10:33:30;;;;;;;8.98;5.47;;;27.80;99.90;;;;;;4769898;30;20032;-71
2022/05/31 10:36:20;;;;;;;6.20;4.43;;;27.10;99.90;;;;;;4783853;30;20110;-71
2022/05/31 10:38:47;;;;;;;7.85;5.78;;;27.10;99.90;;;;;;4770150;30;20046;-70
2022/05/31 10:41:24;;;;;;;5.15;4.57;;;26.30;99.90;;;;;;4775017;30;20044;-70
2022/05/31 10:44:08;;;;;;;8.10;4.93;;;25.90;99.90;;;;;;4788192;30;20073;-70
2022/05/31 10:46:35;;;;;;;7.60;5.28;;;26.20;99.90;;;;;;4771017;30;20039;-71
2022/05/31 10:49:19;;;;;;;6.63;4.97;;;25.20;99.90;;;;;;4773375;29;20506;-70
2022/05/31 10:52:08;;;;;;;7.20;5.22;;;24.80;99.90;;;;;;4776741;30;20043;-70
2022/05/31 10:54:48;;;;;;;7.22;4.55;;;25.30;99.90;;;;;;4787977;29;20425;-70
2022/05/31 10:57:22;;;;;;;6.15;4.07;;;25.30;99.90;;;;;;4787867;30;20031;-70
2022/05/31 10:59:59;;;;;;;4.30;3.85;;;25.30;99.90;;;;;;4770339;30;20406;-70
2022/05/31 11:02:36;;;;;;;7.18;4.20;;;24.00;99.90;;;;;;4774038;30;20130;-70
2022/05/31 11:05:14;;;;;;;9.57;5.43;;;23.80;99.90;;;;;;4778790;30;20044;-70
2022/05/31 11:11:30;;;;;;;8.85;4.93;;;23.10;99.90;;;;;;4754924;30;20152;-70
2022/05/31 11:14:31;;;;;;;5.50;4.07;;;22.60;99.90;;;;;;4776272;30;20063;-70
2022/05/31 11:17:23;;;;;;;6.70;5.00;;;22.90;99.90;;;;;;4782774;30;20047;-70
2022/05/31 11:20:16;;;;;;;8.15;5.45;;;22.20;99.90;;;;;;4787869;29;20085;-70
2022/05/31 11:22:48;;;;;;;9.20;5.90;;;22.00;99.90;;;;;;4780441;30;20023;-70
2022/05/31 11:25:34;;;;;;;7.45;6.45;;;22.10;99.90;;;;;;4787278;29;20042;-70
2022/05/31 11:28:21;;;;;;;8.25;5.72;;;22.80;99.90;;;;;;4769406;30;20062;-70
2022/05/31 11:30:59;;;;;;;5.90;4.40;;;23.10;99.90;;;;;;4769284;30;20385;-70
2022/05/31 11:33:49;;;;;;;5.38;4.40;;;23.00;99.90;;;;;;4769612;30;20093;-70
2022/05/31 11:36:23;;;;;;;5.70;4.18;;;23.30;99.90;;;;;;4781166;30;20032;-70
2022/05/31 11:39:17;;;;;;;7.07;4.57;;;23.50;99.90;;;;;;4787263;29;20499;-70
2022/05/31 11:42:10;;;;;;;4.70;4.10;;;23.40;99.90;;;;;;4770743;30;20349;-70
2022/05/31 11:45:14;;;;;;;4.85;3.58;;;21.90;99.90;;;;;;4778809;30;20204;-70
2022/05/31 11:48:10;;;;;;;5.00;3.67;;;23.30;99.90;;;;;;4776167;30;20043;-70
2022/05/31 11:50:52;;;;;;;6.43;3.95;;;22.90;99.90;;;;;;4782079;30;20039;-70
2022/05/31 11:53:33;;;;;;;4.53;3.45;;;23.10;99.90;;;;;;4787479;29;20130;-70
2022/05/31 11:56:17;;;;;;;5.35;3.15;;;23.50;99.90;;;;;;4787427;29;20056;-70
2022/05/31 11:59:03;;;;;;;6.47;3.33;;;23.00;99.90;;;;;;4787646;29;20043;-70
2022/05/31 12:01:37;;;;;;;5.05;3.28;;;22.50;99.90;;;;;;4787712;29;20039;-70
2022/05/31 12:04:11;;;;;;;7.18;3.53;;;22.20;99.90;;;;;;4787445;29;20035;-70
2022/05/31 12:06:54;;;;;;;7.32;3.35;;;22.20;99.90;;;;;;4780668;29;20102;-71
2022/05/31 12:09:35;;;;;;;4.40;3.00;;;22.20;99.90;;;;;;4773265;30;20050;-70
2022/05/31 12:12:13;;;;;;;5.68;3.65;;;21.60;99.90;;;;;;4770010;30;20391;-69
2022/05/31 12:14:51;;;;;;;6.55;4.10;;;20.60;99.90;;;;;;4774331;30;20147;-69
2022/05/31 12:17:21;;;;;;;5.95;3.88;;;21.10;99.90;;;;;;4780966;30;20031;-69
2022/05/31 12:20:08;;;;;;;7.25;4.90;;;20.90;99.90;;;;;;4776251;29;20106;-69
2022/05/31 12:22:38;;;;;;;5.45;4.85;;;20.50;99.90;;;;;;4771331;30;20102;-69
2022/05/31 12:25:23;;;;;;;5.80;5.20;;;20.60;99.90;;;;;;4785422;30;20415;-69
2022/05/31 12:27:58;;;;;;;6.63;4.68;;;20.40;99.90;;;;;;4787300;29;20027;-69
2022/05/31 12:30:33;;;;;;;8.15;5.13;;;20.20;99.90;;;;;;4787465;29;20024;-69
2022/05/31 12:32:59;;;;;;;8.35;5.95;;;19.60;99.90;;;;;;4776250;29;20051;-70
2022/05/31 12:35:31;;;;;;;10.10;6.53;;;19.30;99.90;;;;;;4786877;30;20036;-70
2022/05/31 12:38:02;;;;;;;9.85;7.03;;;19.10;99.90;;;;;;4787000;30;20028;-71
2022/05/31 12:40:34;;;;;;;8.85;6.10;;;18.80;99.90;;;;;;4787181;30;20028;-70
2022/05/31 12:43:01;;;;;;;10.73;6.68;;;18.30;99.90;;;;;;4786832;30;20032;-69
2022/05/31 12:45:33;;;;;;;8.32;6.25;;;18.40;99.90;;;;;;4787105;29;20082;-71
2022/05/31 12:48:12;;;;;;;9.27;6.85;;;18.20;99.90;;;;;;4786991;29;20476;-69
2022/05/31 12:50:55;;;;;;;8.70;6.43;;;18.30;99.90;;;;;;4787089;30;20043;-69
2022/05/31 12:53:54;;;;;;;11.50;7.35;;;18.30;99.90;;;;;;4782683;29;20035;-69
2022/05/31 12:56:34;;;;;;;9.00;6.40;;;18.10;99.90;;;;;;4787042;29;20087;-69
2022/05/31 12:59:01;;;;;;;9.45;6.20;;;18.20;99.90;;;;;;4782940;29;20023;-72
2022/05/31 13:01:26;;;;;;;8.00;6.57;;;18.00;99.90;;;;;;4769137;30;20040;-71
2022/05/31 13:04:20;;;;;;;11.27;6.32;;;17.90;99.90;;;;;;4774504;30;20064;-71
2022/05/31 13:07:02;;;;;;;9.60;7.40;;;18.00;99.90;;;;;;4768984;30;20079;-69
2022/05/31 13:09:33;;;;;;;10.18;7.65;;;18.00;99.90;;;;;;4772268;30;20039;-69
2022/05/31 13:20:56;;;;;;;11.63;7.55;;;18.50;99.90;;;;;;4751280;30;20168;-69
2022/05/31 13:23:27;;;;;;;8.38;7.03;;;18.60;99.90;;;;;;4755260;30;20082;-69
2022/05/31 13:26:10;;;;;;;9.52;6.85;;;18.70;99.90;;;;;;4768873;30;20118;-69
2022/05/31 13:28:40;;;;;;;11.93;8.25;;;18.40;99.90;;;;;;4768966;30;20036;-69
2022/05/31 13:31:14;;;;;;;;;;;18.00;99.90;;;;;;4769765;30;20057;-69
2022/05/31 13:33:40;;;;;;;8.40;6.93;;;17.60;99.90;;;;;;4768926;30;19984;-69
2022/05/31 13:36:23;;;;;;;10.32;7.72;;;17.30;99.90;;;;;;4769426;30;20504;-69
2022/05/31 13:38:52;;;;;;;8.18;7.15;;;16.80;99.90;;;;;;4754170;30;20115;-70
2022/05/31 13:41:19;;;;;;;12.30;7.93;;;16.60;99.90;;;;;;4754370;30;20028;-70
2022/05/31 13:43:51;;;;;;;11.40;7.50;;;16.50;99.90;;;;;;4754134;30;20040;-69